Nearby METAR Reports

 

KSJC - San Jose, California, USA
Distance from station: NE 9mi, 14km
Updated: 03/26/2019 7:53am
Mostly cloudy
Mostly cloudy
 Wind from NNW
Wind: NNW 5 mph , 7 km/h
Temperature: 52°F , 11°C
Dew Point: 50°F , 10°C
Humidity: 94%
Barometer: 30.05 inHg , 1017.6 hPa
Clouds: Mostly cloudy
Visibility: 10 miles , 16 km
Cloud details: Few Clouds 400 ft
Partly cloudy 1200 ft
Mostly cloudy 2000 ft
2019/03/26 12:53 KSJC 261253Z 33004KT 10SM FEW004 SCT012 BKN020 11/10 A3005 RMK AO2 SLP177 T01110100 $
KNUQ - Moffett Nas/Mtn, California, USA
Distance from station: N 9mi, 14km
Updated: 03/26/2019 7:56am
Clear
Clear
 Wind from calm
Wind: Calm
Temperature: 48°F , 9°C
Barometer: 30.06 inHg , 1017.9 hPa
Clouds: Clear
Visibility: 10 miles , 16 km
2019/03/26 12:56 KNUQ 261256Z 00000KT 10SM CLR 09/ A3006 RMK AO2 SLP181 T0094 $
 
KPAO - Palo Alto, California, USA
Distance from station: NNW 14mi, 23km
Updated: 03/25/2019 6:47pm
NOT Current
Overcast
Overcast
 Wind from WSW
Wind: WSW 10 mph , 17 km/h
Temperature: 63°F , 17°C
Dew Point: 48°F , 9°C
Humidity: 59%
Barometer: 30.05 inHg , 1017.6 hPa
Clouds: Overcast
Visibility: 10 miles , 16 km
Cloud details: Mostly cloudy 4000 ft
Overcast 11000 ft
2019/03/25 23:47 KPAO 252347Z 24009KT 10SM BKN040 OVC110 17/09 A3005 RMK VIS W 2SM
KRHV - San Jose/Reid, California, USA
Distance from station: ENE 12mi, 19km
Updated: 03/25/2019 11:50pm
NOT Current
Rain, Mostly cloudy
Rain, Mostly cloudy
 Wind from calm
Wind: Calm
Temperature: 57°F , 14°C
Dew Point: 55°F , 13°C
Humidity: 94%
Barometer: 30.05 inHg , 1017.6 hPa
Summary: Rain
Clouds: Mostly cloudy
Visibility: 7 miles , 11 km
Cloud details: Mostly cloudy 6000 ft
2019/03/26 04:50 KRHV 260450Z 00000KT 7SM RA BKN060 14/13 A3005
 
KOAK - Oakland, California, USA
Distance from station: NNW 31mi, 50km
Updated: 03/26/2019 7:53am
Partly cloudy
Partly cloudy
 Wind from NE
Wind: NE 3 mph , 6 km/h
Temperature: 52°F , 11°C
Dew Point: 52°F , 11°C
Humidity: 100%
Barometer: 30.05 inHg , 1017.6 hPa
Clouds: Partly cloudy
Visibility: 10 miles , 16 km
Cloud details: Partly cloudy 1900 ft
Partly cloudy 7000 ft
2019/03/26 12:53 KOAK 261253Z 04003KT 10SM SCT019 SCT070 11/11 A3005 RMK AO2 SLP176 T01060106 $
KSQL - San Carlos Airpo, California, USA
Distance from station: NW 21mi, 34km
Updated: 03/26/2019 7:55am
Few Clouds
Few Clouds
 Wind from SSW
Wind: SSW 3 mph , 6 km/h
Temperature: 48°F , 9°C
Dew Point: 48°F , 9°C
Humidity: 100%
Barometer: 30.05 inHg , 1017.6 hPa
Clouds: Few Clouds
Visibility: 10 miles , 16 km
Cloud details: Few Clouds 7000 ft
2019/03/26 12:55 KSQL 261255Z AUTO 20003KT 10SM FEW070 09/09 A3005 RMK AO2
 
KSFO - San Francisco, California, USA
Distance from station: NW 30mi, 49km
Updated: 03/26/2019 7:56am
Mostly cloudy
Mostly cloudy
 Wind from SW
Wind: SW 3 mph , 6 km/h
Temperature: 50°F , 10°C
Dew Point: 46°F , 8°C
Humidity: 88%
Barometer: 30.05 inHg , 1017.6 hPa
Clouds: Mostly cloudy
Visibility: 8 miles , 13 km
Cloud details: Few Clouds 800 ft
Mostly cloudy 7000 ft
2019/03/26 12:56 KSFO 261256Z 22003KT 8SM FEW008 BKN070 10/08 A3005 RMK AO2 SLP174 T01000078
KE16 - San Martin, California, USA
Distance from station: ESE 27mi, 43km
Updated: 03/20/2019 7:15pm
NOT Current
Clear
Clear
 Wind from SSW
Wind: SSW 14 mph , 22 km/h
Temperature: 59°F , 15°C
Dew Point: 41°F , 5°C
Humidity: 51%
Barometer: 30.04 inHg , 1017.3 hPa
Clouds: Clear
Visibility: 10 miles , 16 km
2019/03/21 00:15 KE16 210015Z AUTO 21012KT 10SM CLR 15/05 A3004 RMK AO2
 
KWVI - Watsonville, California, USA
Distance from station: SSE 27mi, 44km
Updated: 03/26/2019 7:53am
Overcast
Overcast
 Wind from calm
Wind: Calm
Temperature: 52°F , 11°C
Dew Point: 52°F , 11°C
Humidity: 100%
Barometer: 30.05 inHg , 1017.6 hPa
Clouds: Overcast
Visibility: 10 miles , 16 km
Cloud details: Overcast 3800 ft
2019/03/26 12:53 KWVI 261253Z AUTO 00000KT 10SM OVC038 11/11 A3005 RMK AO2 SLP176 T01110111
KHAF - Half Moon Bay, California, USA
Distance from station: WNW 31mi, 50km
Updated: 03/26/2019 7:55am
Mist, Clear
Mist, Clear
 Wind from calm
Wind: Calm
Temperature: 45°F , 7°C
Dew Point: 43°F , 6°C
Humidity: 93%
Barometer: 30.06 inHg , 1017.9 hPa
Summary: Mist
Clouds: Clear
Visibility: 2 1/2 miles , 4 km
2019/03/26 12:55 KHAF 261255Z AUTO 00000KT 2 1/2SM BR CLR 07/06 A3006 RMK AO2
 
KHWD - Hayward, California, USA
Distance from station: N 28mi, 44km
Updated: 03/26/2019 7:54am
Mostly cloudy
Mostly cloudy
 Wind from NE
Wind: NE 3 mph , 6 km/h
Temperature: 63°F , 17°C
Dew Point: 48°F , 9°C
Humidity: 59%
Barometer: 30.05 inHg , 1017.6 hPa
Clouds: Mostly cloudy
Visibility: 10 miles , 16 km
Cloud details: Mostly cloudy 7000 ft
2019/03/26 12:54 KHWD 261254Z AUTO 04003KT 10SM BKN070 17/09 A3005 RMK AO2 SLP183 T01670094
KLVK - Livermore, California, USA
Distance from station: NNE 31mi, 51km
Updated: 03/26/2019 7:53am
Mostly cloudy
Mostly cloudy
 Wind from SW
Wind: SW 5 mph , 7 km/h
Temperature: 48°F , 9°C
Wind Chill: 46°F , 8°C
Dew Point: 46°F , 8°C
Humidity: 94%
Barometer: 30.04 inHg , 1017.3 hPa
Clouds: Mostly cloudy
Visibility: 8 miles , 13 km
Cloud details: Few Clouds 4200 ft
Mostly cloudy 6000 ft
2019/03/26 12:53 KLVK 261253Z AUTO 23004KT 8SM FEW042 BKN060 09/08 A3004 RMK AO2 SLP172 T00940078